createdAt,value
2017-12-17T00:01:30.636Z,95494.94
2017-12-17T00:03:58.109Z,95493.73
2017-12-17T00:06:25.585Z,95490.88
2017-12-17T00:08:53.077Z,95493.64
2017-12-17T00:11:20.540Z,95492.80
2017-12-17T00:13:48.021Z,95491.19
2017-12-17T00:16:15.510Z,95490.70
2017-12-17T00:18:42.980Z,95496.06
2017-12-17T00:21:10.457Z,95496.30
2017-12-17T00:23:37.941Z,95495.70
2017-12-17T00:26:05.404Z,95498.23
2017-12-17T00:28:32.867Z,95498.52
2017-12-17T00:31:00.369Z,95494.33
2017-12-17T00:33:27.832Z,95497.71
2017-12-17T00:35:55.298Z,95492.31
2017-12-17T00:38:22.788Z,95493.12
2017-12-17T00:40:50.257Z,95498.08
2017-12-17T00:43:17.733Z,95498.08
2017-12-17T00:45:45.216Z,95503.48
2017-12-17T00:48:12.692Z,95497.88
2017-12-17T00:50:40.157Z,95504.56
2017-12-17T00:53:07.651Z,95504.16
2017-12-17T00:55:35.121Z,95512.59
2017-12-17T00:58:02.585Z,95513.39
2017-12-17T01:00:30.068Z,95510.13
2017-12-17T01:02:57.532Z,95513.15
2017-12-17T01:05:25.012Z,95512.67
2017-12-17T01:07:52.476Z,95521.02
2017-12-17T01:10:19.970Z,95525.88
2017-12-17T01:12:47.437Z,95530.70
2017-12-17T01:15:14.925Z,95526.30
2017-12-17T01:17:42.399Z,95530.86
2017-12-17T01:20:09.889Z,95536.99
2017-12-17T01:22:37.353Z,95538.23
2017-12-17T01:25:04.841Z,95533.31
2017-12-17T01:27:32.320Z,95538.39
2017-12-17T01:29:59.801Z,95539.85
2017-12-17T01:32:27.264Z,95545.36
2017-12-17T01:34:54.744Z,95549.41
2017-12-17T01:37:22.208Z,95550.25
2017-12-17T01:39:49.692Z,95551.50
2017-12-17T01:42:17.166Z,95552.23
2017-12-17T01:44:44.649Z,95544.37
2017-12-17T01:47:12.113Z,95551.23
2017-12-17T01:49:39.605Z,95552.19
2017-12-17T01:52:07.069Z,95553.03
2017-12-17T01:54:34.556Z,95543.70
2017-12-17T01:57:02.029Z,95542.92
2017-12-17T01:59:29.500Z,95540.80
2017-12-17T02:01:56.985Z,95540.67
2017-12-17T02:04:24.449Z,95543.05
2017-12-17T02:06:51.940Z,95541.13
2017-12-17T02:09:19.408Z,95546.79
2017-12-17T02:11:46.893Z,95548.96
2017-12-17T02:14:14.359Z,95546.52
2017-12-17T02:16:41.854Z,95545.86
2017-12-17T02:19:09.329Z,95550.78
2017-12-17T02:21:36.820Z,95547.84
2017-12-17T02:24:04.289Z,95555.27
2017-12-17T02:26:31.769Z,95553.03
2017-12-17T02:28:59.273Z,95557.09
2017-12-17T02:31:26.773Z,95556.18
2017-12-17T02:33:54.288Z,95559.48
2017-12-17T02:36:21.777Z,95562.73
2017-12-17T02:38:49.241Z,95570.71
2017-12-17T02:41:16.724Z,95563.30
2017-12-17T02:43:44.203Z,95564.55
2017-12-17T02:46:11.694Z,95574.34
2017-12-17T02:48:39.169Z,95577.14
2017-12-17T02:51:06.656Z,95581.55
2017-12-17T02:53:34.127Z,95581.88
2017-12-17T02:56:01.618Z,95585.05
2017-12-17T02:58:29.089Z,95580.89
2017-12-17T03:00:56.569Z,95577.08
2017-12-17T03:03:24.037Z,95587.39
2017-12-17T03:05:51.520Z,95580.64
2017-12-17T03:08:19.013Z,95582.19
2017-12-17T03:10:46.497Z,95578.77
2017-12-17T03:13:13.965Z,95589.89
2017-12-17T03:15:41.453Z,95583.88
2017-12-17T03:18:08.921Z,95592.17
2017-12-17T03:20:36.405Z,95589.59
2017-12-17T03:23:03.877Z,95583.36
2017-12-17T03:25:31.364Z,95583.61
2017-12-17T03:27:58.833Z,95583.30
2017-12-17T03:30:26.318Z,95595.95
2017-12-17T03:32:53.793Z,95595.58
2017-12-17T03:35:21.272Z,95597.56
2017-12-17T03:37:48.745Z,95592.61
2017-12-17T03:40:16.228Z,95599.84
2017-12-17T03:42:43.696Z,95603.23
2017-12-17T03:45:11.181Z,95601.54
2017-12-17T03:47:38.648Z,95603.52
2017-12-17T03:50:06.137Z,95603.15
2017-12-17T03:52:33.601Z,95599.48
2017-12-17T03:55:01.089Z,95599.92
2017-12-17T03:57:28.557Z,95599.00
2017-12-17T03:59:56.022Z,95600.69
2017-12-17T04:02:23.504Z,95592.64
2017-12-17T04:04:50.981Z,95600.17
2017-12-17T04:07:18.464Z,95598.52
2017-12-17T04:09:45.943Z,95606.02
2017-12-17T04:12:13.429Z,95603.92
2017-12-17T04:14:40.892Z,95611.09
2017-12-17T04:17:08.380Z,95621.00
2017-12-17T04:19:35.849Z,95623.02
2017-12-17T04:22:03.340Z,95620.09
2017-12-17T04:24:30.805Z,95617.55
2017-12-17T04:26:58.289Z,95624.53
2017-12-17T04:29:25.753Z,95624.05
2017-12-17T04:31:53.245Z,95626.04
2017-12-17T04:34:20.712Z,95635.66
2017-12-17T04:36:48.193Z,95635.92
2017-12-17T04:39:15.669Z,95645.22
2017-12-17T04:41:43.157Z,95646.95
2017-12-17T04:44:10.629Z,95641.58
2017-12-17T04:46:38.118Z,95642.68
2017-12-17T04:49:05.583Z,95642.06
2017-12-17T04:51:33.069Z,95640.77
2017-12-17T04:54:00.540Z,95641.69
2017-12-17T04:56:28.037Z,95641.77
2017-12-17T04:58:55.509Z,95641.36
2017-12-17T05:01:23.961Z,95644.22
2017-12-17T05:03:51.432Z,95653.08
2017-12-17T05:06:18.925Z,95644.16
2017-12-17T05:08:46.396Z,95644.22
2017-12-17T05:11:13.879Z,95647.28
2017-12-17T05:13:41.353Z,95645.14
2017-12-17T05:16:08.836Z,95649.92
2017-12-17T05:18:36.312Z,95646.53
2017-12-17T05:21:03.796Z,95646.69
2017-12-17T05:23:31.256Z,95649.41
2017-12-17T05:25:58.724Z,95657.52
2017-12-17T05:28:26.217Z,95659.88
2017-12-17T05:30:53.702Z,95656.68
2017-12-17T05:33:21.184Z,95657.89
2017-12-17T05:35:48.657Z,95662.33
2017-12-17T05:38:16.136Z,95659.88
2017-12-17T05:40:43.605Z,95664.36
2017-12-17T05:43:11.095Z,95667.59
2017-12-17T05:45:38.560Z,95662.30
2017-12-17T05:48:06.054Z,95668.44
2017-12-17T05:50:33.521Z,95671.97
2017-12-17T05:53:01.004Z,95671.70
2017-12-17T05:55:28.477Z,95666.02
2017-12-17T05:57:55.966Z,95662.27
2017-12-17T06:00:23.436Z,95667.19
2017-12-17T06:02:50.920Z,95661.30
2017-12-17T06:05:18.394Z,95670.06
2017-12-17T06:07:45.876Z,95670.91
2017-12-17T06:10:13.340Z,95675.75
2017-12-17T06:12:40.852Z,95678.91
2017-12-17T06:15:08.316Z,95685.66
2017-12-17T06:17:35.801Z,95682.47
2017-12-17T06:20:03.265Z,95687.87
2017-12-17T06:22:30.745Z,95692.31
2017-12-17T06:24:58.209Z,95698.52
2017-12-17T06:27:25.697Z,95696.50
2017-12-17T06:29:53.228Z,95693.13
2017-12-17T06:32:20.715Z,95693.05
2017-12-17T06:34:48.277Z,95697.82
2017-12-17T06:37:15.768Z,95704.61
2017-12-17T06:39:43.238Z,95700.62
2017-12-17T06:42:10.716Z,95718.44
2017-12-17T06:44:38.189Z,95715.17
2017-12-17T06:47:05.684Z,95717.87
2017-12-17T06:49:33.159Z,95715.61
2017-12-17T06:52:00.646Z,95721.85
2017-12-17T06:54:28.108Z,95715.54
2017-12-17T06:56:55.573Z,95718.47
2017-12-17T06:59:23.060Z,95725.05
2017-12-17T07:01:50.532Z,95728.58
2017-12-17T07:04:18.066Z,95725.94
2017-12-17T07:06:45.509Z,95731.97
2017-12-17T07:09:12.993Z,95735.09
2017-12-17T07:11:40.545Z,95740.32
2017-12-17T07:14:08.029Z,95736.98
2017-12-17T07:16:35.492Z,95743.16
2017-12-17T07:19:03.000Z,95739.09
2017-12-17T07:21:30.465Z,95745.85
2017-12-17T07:23:57.952Z,95746.83
2017-12-17T07:26:25.416Z,95740.98
2017-12-17T07:28:52.901Z,95761.20
2017-12-17T07:31:20.369Z,95760.03
2017-12-17T07:33:47.852Z,95763.34
2017-12-17T07:36:15.317Z,95764.59
2017-12-17T07:38:42.881Z,95766.98
2017-12-17T07:41:10.349Z,95774.59
2017-12-17T07:43:37.833Z,95771.07
2017-12-17T07:46:05.305Z,95784.45
2017-12-17T07:48:32.792Z,95790.89
2017-12-17T07:51:00.257Z,95786.67
2017-12-17T07:53:27.741Z,95788.62
2017-12-17T07:55:55.205Z,95788.28
2017-12-17T07:58:22.689Z,95796.16
2017-12-17T08:00:50.165Z,95797.44
2017-12-17T08:03:17.659Z,95796.16
2017-12-17T08:05:45.129Z,95801.56
2017-12-17T08:08:12.614Z,95794.83
2017-12-17T08:10:40.076Z,95803.18
2017-12-17T08:13:07.560Z,95802.33
2017-12-17T08:15:35.028Z,95802.86
2017-12-17T08:18:02.508Z,95811.42
2017-12-17T08:20:29.968Z,95805.25
2017-12-17T08:22:57.451Z,95814.66
2017-12-17T08:25:24.928Z,95817.72
2017-12-17T08:27:52.398Z,95818.78
2017-12-17T08:30:19.876Z,95819.12
2017-12-17T08:32:47.344Z,95832.87
2017-12-17T08:35:14.825Z,95832.39
2017-12-17T08:37:42.301Z,95840.34
2017-12-17T08:40:09.780Z,95836.27
2017-12-17T08:42:37.244Z,95844.88
2017-12-17T08:45:04.724Z,95845.28
2017-12-17T08:47:32.200Z,95847.70
2017-12-17T08:49:59.677Z,95845.05
2017-12-17T08:52:27.140Z,95851.67
2017-12-17T08:54:54.626Z,95849.73
2017-12-17T08:57:22.158Z,95855.53
2017-12-17T08:59:49.613Z,95860.34
2017-12-17T09:02:17.075Z,95867.68
2017-12-17T09:04:44.556Z,95868.82
2017-12-17T09:07:12.016Z,95868.88
2017-12-17T09:09:39.496Z,95870.79
2017-12-17T09:12:07.020Z,95875.95
2017-12-17T09:14:34.481Z,95879.45
2017-12-17T09:17:01.941Z,95877.56
2017-12-17T09:19:29.432Z,95891.70
2017-12-17T09:21:56.902Z,95883.22
2017-12-17T09:24:24.384Z,95887.38
2017-12-17T09:26:51.844Z,95885.81
2017-12-17T09:29:19.326Z,95885.08
2017-12-17T09:31:46.788Z,95888.30
2017-12-17T09:34:14.273Z,95894.67
2017-12-17T09:36:41.748Z,95883.70
2017-12-17T09:39:09.228Z,95884.64
2017-12-17T09:41:36.690Z,95883.77
2017-12-17T09:44:04.169Z,95884.56
2017-12-17T09:46:31.637Z,95881.56
2017-12-17T09:48:59.156Z,95881.82
2017-12-17T09:51:26.625Z,95886.15
2017-12-17T09:53:54.088Z,95889.25
2017-12-17T09:56:21.564Z,95891.52
2017-12-17T09:58:49.029Z,95891.52
2017-12-17T10:01:16.513Z,95889.62
2017-12-17T10:03:43.977Z,95896.73
2017-12-17T10:06:11.461Z,95900.37
2017-12-17T10:08:38.929Z,95900.09
2017-12-17T10:11:06.408Z,95899.20
2017-12-17T10:13:33.876Z,95914.59
2017-12-17T10:16:01.357Z,95900.28
2017-12-17T10:18:28.821Z,95902.94
2017-12-17T10:20:56.300Z,95904.98
2017-12-17T10:23:23.760Z,95906.45
2017-12-17T10:25:51.241Z,95895.16
2017-12-17T10:28:18.704Z,95899.31
2017-12-17T10:30:46.180Z,95904.16
2017-12-17T10:33:13.645Z,95896.52
2017-12-17T10:35:41.138Z,95905.41
2017-12-17T10:38:08.602Z,95902.09
2017-12-17T10:40:36.086Z,95910.36
2017-12-17T10:43:03.548Z,95909.40
2017-12-17T10:45:31.024Z,95908.79
2017-12-17T10:47:58.493Z,95912.55
2017-12-17T10:50:25.984Z,95913.58
2017-12-17T10:52:53.453Z,95915.76
2017-12-17T10:55:20.937Z,95924.41
2017-12-17T10:57:48.397Z,95924.32
2017-12-17T11:00:16.107Z,95923.35
2017-12-17T11:02:43.576Z,95918.06
2017-12-17T11:05:11.052Z,95918.94
2017-12-17T11:07:38.517Z,95910.52
2017-12-17T11:10:05.997Z,95910.25
2017-12-17T11:12:33.465Z,95913.60
2017-12-17T11:15:00.958Z,95911.98
2017-12-17T11:17:28.428Z,95917.39
2017-12-17T11:19:55.888Z,95918.09
2017-12-17T11:22:23.369Z,95918.03
2017-12-17T11:24:50.837Z,95912.62
2017-12-17T11:27:18.323Z,95911.97
2017-12-17T11:29:45.788Z,95912.04
2017-12-17T11:32:13.272Z,95909.76
2017-12-17T11:34:40.737Z,95909.41
2017-12-17T11:37:08.228Z,95904.33
2017-12-17T11:39:35.689Z,95913.42
2017-12-17T11:42:03.177Z,95918.84
2017-12-17T11:44:30.641Z,95911.10
2017-12-17T11:46:58.129Z,95910.13
2017-12-17T11:49:25.640Z,95901.48
2017-12-17T11:51:53.226Z,95909.05
2017-12-17T11:54:20.691Z,95904.95
2017-12-17T11:56:48.168Z,95905.85
2017-12-17T11:59:15.633Z,95904.75
2017-12-17T12:01:43.113Z,95907.14
2017-12-17T12:04:10.573Z,95907.88
2017-12-17T12:06:38.053Z,95910.64
2017-12-17T12:09:05.520Z,95911.59
2017-12-17T12:11:33.000Z,95912.88
2017-12-17T12:14:00.465Z,95913.95
2017-12-17T12:16:27.947Z,95907.77
2017-12-17T12:18:55.413Z,95910.64
2017-12-17T12:21:22.895Z,95902.17
2017-12-17T12:23:50.361Z,95908.50
2017-12-17T12:26:17.840Z,95889.62
2017-12-17T12:28:45.357Z,95906.47
2017-12-17T12:31:12.844Z,95907.11
2017-12-17T12:33:40.321Z,95909.53
2017-12-17T12:36:07.805Z,95911.01
2017-12-17T12:38:35.306Z,95914.94
2017-12-17T12:41:02.817Z,95906.26
2017-12-17T12:43:30.282Z,95897.64
2017-12-17T12:45:57.757Z,95901.86
2017-12-17T12:48:25.220Z,95904.85
2017-12-17T12:50:52.701Z,95903.27
2017-12-17T12:53:20.165Z,95906.98
2017-12-17T12:55:47.645Z,95909.70
2017-12-17T12:58:15.105Z,95914.40
2017-12-17T13:00:42.576Z,95906.56
2017-12-17T13:03:10.057Z,95913.16
2017-12-17T13:05:37.521Z,95918.02
2017-12-17T13:08:05.000Z,95923.17
2017-12-17T13:10:32.461Z,95923.77
2017-12-17T13:12:59.948Z,95927.08
2017-12-17T13:15:27.421Z,95933.23
2017-12-17T13:17:54.896Z,95924.52
2017-12-17T13:20:22.356Z,95933.51
2017-12-17T13:22:49.840Z,95934.69
2017-12-17T13:25:17.300Z,95938.87
2017-12-17T13:27:44.860Z,95935.56
2017-12-17T13:30:12.367Z,95932.48
2017-12-17T13:32:40.028Z,95941.02
2017-12-17T13:35:07.501Z,95944.02
2017-12-17T13:37:35.052Z,95950.78
2017-12-17T13:40:02.550Z,95951.28
2017-12-17T13:42:30.126Z,95958.66
2017-12-17T13:44:57.668Z,95957.27
2017-12-17T13:47:25.191Z,95949.09
2017-12-17T13:49:52.661Z,95962.55
2017-12-17T13:52:20.171Z,95964.09
2017-12-17T13:54:47.632Z,95963.12
2017-12-17T13:57:15.113Z,95971.30
2017-12-17T13:59:42.576Z,95964.03
2017-12-17T14:02:10.068Z,95973.97
2017-12-17T14:04:37.529Z,95974.44
2017-12-17T14:07:05.025Z,95978.29
2017-12-17T14:09:32.543Z,95979.54
2017-12-17T14:12:00.033Z,95976.36
2017-12-17T14:14:27.505Z,95984.23
2017-12-17T14:16:55.048Z,95990.65
2017-12-17T14:19:22.477Z,95992.61
2017-12-17T14:21:49.956Z,95981.96
2017-12-17T14:24:17.429Z,95993.15
2017-12-17T14:26:44.916Z,95990.58
2017-12-17T14:29:12.384Z,95994.59
2017-12-17T14:31:39.864Z,95988.06
2017-12-17T14:34:07.328Z,95991.03
2017-12-17T14:36:34.816Z,95992.34
2017-12-17T14:39:05.920Z,96000.63
2017-12-17T14:41:36.188Z,95997.22
2017-12-17T14:44:03.653Z,95998.53
2017-12-17T14:46:31.136Z,96007.69
2017-12-17T14:48:58.604Z,96007.72
2017-12-17T14:51:26.107Z,96007.25
2017-12-17T14:53:53.581Z,96010.22
2017-12-17T14:56:21.064Z,96012.31
2017-12-17T14:58:48.533Z,96023.66
2017-12-17T15:01:16.008Z,96019.06
2017-12-17T15:03:43.496Z,96027.41
2017-12-17T15:06:10.969Z,96030.69
2017-12-17T15:08:38.452Z,96035.34
2017-12-17T15:11:05.930Z,96037.84
2017-12-17T15:13:33.416Z,96036.97
2017-12-17T15:16:00.881Z,96039.38
2017-12-17T15:18:28.369Z,96043.22
2017-12-17T15:20:55.835Z,96051.16
2017-12-17T15:23:23.318Z,96050.69
2017-12-17T15:25:50.789Z,96050.88
2017-12-17T15:28:18.273Z,96051.72
2017-12-17T15:30:45.745Z,96055.58
2017-12-17T15:33:13.224Z,96056.34
2017-12-17T15:35:40.688Z,96059.83
2017-12-17T15:38:08.172Z,96073.17
2017-12-17T15:40:35.636Z,96071.11
2017-12-17T15:43:03.117Z,96071.16
2017-12-17T15:45:30.580Z,96067.09
2017-12-17T15:47:58.069Z,96077.64
2017-12-17T15:50:25.534Z,96083.52
2017-12-17T15:52:53.013Z,96091.39
2017-12-17T15:55:20.481Z,96091.80
2017-12-17T15:57:47.960Z,96098.42
2017-12-17T16:00:15.532Z,96098.50
2017-12-17T16:02:43.012Z,96112.25
2017-12-17T16:05:10.478Z,96113.26
2017-12-17T16:07:37.957Z,96124.52
2017-12-17T16:10:05.421Z,96128.98
2017-12-17T16:12:32.901Z,96130.80
2017-12-17T16:15:00.366Z,96130.02
2017-12-17T16:17:27.849Z,96132.52
2017-12-17T16:19:55.881Z,96136.13
2017-12-17T16:22:23.376Z,96139.13
2017-12-17T16:24:50.841Z,96147.92
2017-12-17T16:27:18.325Z,96144.28
2017-12-17T16:29:45.789Z,96145.42
2017-12-17T16:32:13.268Z,96145.07
2017-12-17T16:34:40.737Z,96147.87
2017-12-17T16:37:08.221Z,96149.88
2017-12-17T16:39:35.693Z,96148.30
2017-12-17T16:42:03.221Z,96145.83
2017-12-17T16:44:30.701Z,96151.34
2017-12-17T16:46:58.192Z,96152.19
2017-12-17T16:49:25.656Z,96158.40
2017-12-17T16:51:53.140Z,96158.02
2017-12-17T16:54:20.673Z,96167.52
2017-12-17T16:56:48.138Z,96169.16
2017-12-17T16:59:15.624Z,96171.22
2017-12-17T17:01:43.109Z,96172.49
2017-12-17T17:04:10.605Z,96184.55
2017-12-17T17:06:38.924Z,96178.69
2017-12-17T17:09:06.417Z,96177.89
2017-12-17T17:11:33.880Z,96183.45
2017-12-17T17:14:01.366Z,96191.70
2017-12-17T17:16:28.833Z,96185.89
2017-12-17T17:18:56.317Z,96192.19
2017-12-17T17:21:23.780Z,96185.56
2017-12-17T17:23:51.285Z,96171.39
2017-12-17T17:26:18.761Z,96186.84
2017-12-17T17:28:46.241Z,96182.17
2017-12-17T17:31:13.732Z,96179.75
2017-12-17T17:33:41.280Z,96198.13
2017-12-17T17:36:08.818Z,96196.83
2017-12-17T17:38:36.300Z,96200.28
2017-12-17T17:41:03.764Z,96193.56
2017-12-17T17:43:31.244Z,96199.45
2017-12-17T17:45:58.716Z,96206.06
2017-12-17T17:48:26.199Z,96203.11
2017-12-17T17:50:53.833Z,96207.34
2017-12-17T17:53:21.322Z,96213.61
2017-12-17T17:55:48.793Z,96217.33
2017-12-17T17:58:16.315Z,96219.41
2017-12-17T18:00:43.798Z,96223.55
2017-12-17T18:03:11.284Z,96228.42
2017-12-17T18:05:38.749Z,96225.23
2017-12-17T18:08:06.237Z,96227.25
2017-12-17T18:10:33.700Z,96226.91
2017-12-17T18:13:01.181Z,96225.21
2017-12-17T18:15:28.644Z,96234.31
2017-12-17T18:17:56.129Z,96228.95
2017-12-17T18:20:23.593Z,96233.06
2017-12-17T18:22:51.057Z,96240.19
2017-12-17T18:25:18.545Z,96243.97
2017-12-17T18:27:46.012Z,96237.72
2017-12-17T18:30:13.500Z,96245.53
2017-12-17T18:32:40.965Z,96241.05
2017-12-17T18:35:08.506Z,96254.77
2017-12-17T18:37:35.977Z,96252.31
2017-12-17T18:40:03.463Z,96255.56
2017-12-17T18:42:30.925Z,96261.75
2017-12-17T18:44:58.412Z,96256.50
2017-12-17T18:47:25.876Z,96256.85
2017-12-17T18:49:53.364Z,96255.61
2017-12-17T18:52:20.827Z,96261.44
2017-12-17T18:54:48.317Z,96259.39
2017-12-17T18:57:15.780Z,96255.25
2017-12-17T18:59:43.268Z,96258.99
2017-12-17T19:02:10.732Z,96259.45
2017-12-17T19:04:38.257Z,96263.59
2017-12-17T19:07:05.731Z,96261.80
2017-12-17T19:09:33.316Z,96265.69
2017-12-17T19:12:00.780Z,96261.08
2017-12-17T19:14:28.265Z,96263.23
2017-12-17T19:16:55.728Z,96259.48
2017-12-17T19:19:23.215Z,96259.49
2017-12-17T19:21:50.807Z,96269.88
2017-12-17T19:24:18.296Z,96268.55
2017-12-17T19:26:45.824Z,96261.46
2017-12-17T19:29:13.348Z,96262.30
2017-12-17T19:31:40.840Z,96271.95
2017-12-17T19:34:08.324Z,96265.69
2017-12-17T19:36:35.788Z,96264.08
2017-12-17T19:39:03.269Z,96264.48
2017-12-17T19:41:30.732Z,96267.34
2017-12-17T19:43:58.241Z,96269.03
2017-12-17T19:46:25.713Z,96270.70
2017-12-17T19:48:53.193Z,96263.23
2017-12-17T19:51:20.677Z,96263.59
2017-12-17T19:53:48.145Z,96267.73
2017-12-17T19:56:15.761Z,96271.52
2017-12-17T19:58:43.235Z,96272.82
2017-12-17T20:01:10.724Z,96275.58
2017-12-17T20:03:38.196Z,96276.52
2017-12-17T20:06:05.693Z,96278.55
2017-12-17T20:08:33.166Z,96283.16
2017-12-17T20:11:00.653Z,96281.55
2017-12-17T20:13:28.128Z,96278.22
2017-12-17T20:15:55.608Z,96286.03
2017-12-17T20:18:23.076Z,96281.07
2017-12-17T20:20:50.565Z,96283.12
2017-12-17T20:23:18.033Z,96284.84
2017-12-17T20:25:45.531Z,96278.62
2017-12-17T20:28:13.009Z,96282.37
2017-12-17T20:30:40.493Z,96281.13
2017-12-17T20:33:07.969Z,96290.52
2017-12-17T20:35:35.480Z,96281.80
2017-12-17T20:38:02.946Z,96282.72
2017-12-17T20:40:30.425Z,96294.36
2017-12-17T20:42:57.926Z,96295.15
2017-12-17T20:45:25.393Z,96288.36
2017-12-17T20:47:52.880Z,96294.90
2017-12-17T20:50:20.358Z,96292.91
2017-12-17T20:52:47.864Z,96291.54
2017-12-17T20:55:15.335Z,96293.11
2017-12-17T20:57:42.831Z,96297.16
2017-12-17T21:00:10.304Z,96295.25
2017-12-17T21:02:37.785Z,96297.45
2017-12-17T21:05:05.329Z,96295.05
2017-12-17T21:07:32.816Z,96293.72
2017-12-17T21:10:00.320Z,96287.67
2017-12-17T21:12:27.795Z,96282.80
2017-12-17T21:14:55.266Z,96281.94
2017-12-17T21:17:22.748Z,96274.83
2017-12-17T21:19:50.221Z,96284.72
2017-12-17T21:22:17.704Z,96278.85
2017-12-17T21:24:45.168Z,96279.66
2017-12-17T21:27:12.652Z,96278.85
2017-12-17T21:29:40.113Z,96287.58
2017-12-17T21:32:07.611Z,96288.94
2017-12-17T21:34:35.085Z,96286.80
2017-12-17T21:37:02.596Z,96293.09
2017-12-17T21:39:30.069Z,96291.39
2017-12-17T21:41:57.554Z,96293.64
2017-12-17T21:44:25.036Z,96300.36
2017-12-17T21:46:52.517Z,96297.89
2017-12-17T21:49:19.985Z,96301.12
2017-12-17T21:51:47.476Z,96296.62
2017-12-17T21:54:14.941Z,96299.83
2017-12-17T21:56:42.428Z,96304.74
2017-12-17T21:59:09.892Z,96304.24
2017-12-17T22:01:37.376Z,96308.50
2017-12-17T22:04:04.840Z,96304.69
2017-12-17T22:06:32.390Z,96305.08
2017-12-17T22:08:59.857Z,96310.46
2017-12-17T22:11:28.031Z,96306.27
2017-12-17T22:13:55.514Z,96305.00
2017-12-17T22:16:23.024Z,96307.88
2017-12-17T22:18:50.493Z,96307.49
2017-12-17T22:21:17.976Z,96304.95
2017-12-17T22:23:45.449Z,96300.03
2017-12-17T22:26:12.948Z,96291.72
2017-12-17T22:28:40.425Z,96292.17
2017-12-17T22:31:07.917Z,96302.17
2017-12-17T22:33:35.391Z,96299.69
2017-12-17T22:36:02.856Z,96299.36
2017-12-17T22:38:30.337Z,96297.68
2017-12-17T22:40:57.809Z,96293.08
2017-12-17T22:43:25.374Z,96297.19
2017-12-17T22:45:52.840Z,96290.88
2017-12-17T22:48:20.325Z,96288.77
2017-12-17T22:50:47.792Z,96283.37
2017-12-17T22:53:15.276Z,96278.05
2017-12-17T22:55:42.744Z,96274.41
2017-12-17T22:58:10.224Z,96274.03
2017-12-17T23:00:37.692Z,96276.53
2017-12-17T23:03:05.177Z,96275.00
2017-12-17T23:05:32.646Z,96277.10
2017-12-17T23:08:00.129Z,96269.53
2017-12-17T23:10:27.596Z,96275.36
2017-12-17T23:12:55.081Z,96280.86
2017-12-17T23:15:22.544Z,96279.06
2017-12-17T23:17:50.025Z,96271.17
2017-12-17T23:20:17.488Z,96269.97
2017-12-17T23:22:44.975Z,96270.22
2017-12-17T23:25:12.445Z,96262.30
2017-12-17T23:27:40.016Z,96266.05
2017-12-17T23:30:07.485Z,96265.68
2017-12-17T23:32:34.969Z,96267.03
2017-12-17T23:35:02.461Z,96264.55
2017-12-17T23:37:29.965Z,96260.30
2017-12-17T23:39:57.439Z,96255.84
2017-12-17T23:42:24.930Z,96260.80
2017-12-17T23:44:52.393Z,96256.72
2017-12-17T23:47:19.884Z,96255.35
2017-12-17T23:49:47.351Z,96250.00
2017-12-17T23:52:14.851Z,96249.16
2017-12-17T23:54:42.325Z,96249.52
2017-12-17T23:57:09.914Z,96249.91
2017-12-17T23:59:37.380Z,96241.72
